createdAt,value
2023-08-07T00:00:36.557Z,95831.84
2023-08-07T00:03:41.785Z,95836.06
2023-08-07T00:06:44.084Z,95831.44
2023-08-07T00:09:47.564Z,95829.94
2023-08-07T00:12:51.602Z,95827.97
2023-08-07T00:16:04.255Z,95840.00
2023-08-07T00:19:10.379Z,95848.41
2023-08-07T00:22:14.988Z,95847.25
2023-08-07T00:25:19.235Z,95846.94
2023-08-07T00:28:23.125Z,95845.47
2023-08-07T00:31:29.095Z,95843.31
2023-08-07T00:34:42.318Z,95825.78
2023-08-07T00:37:45.584Z,95826.28
2023-08-07T00:40:56.528Z,95840.50
2023-08-07T00:44:00.584Z,95839.53
2023-08-07T00:47:06.822Z,95844.72
2023-08-07T00:50:14.353Z,95835.00
2023-08-07T00:53:19.748Z,95842.38
2023-08-07T00:56:24.344Z,95840.91
2023-08-07T00:59:28.988Z,95842.06
2023-08-07T01:02:33.385Z,95843.75
2023-08-07T01:05:38.455Z,95841.22
2023-08-07T01:08:42.745Z,95836.72
2023-08-07T01:12:10.425Z,95837.06
2023-08-07T01:15:19.967Z,95839.72
2023-08-07T01:18:23.544Z,95837.25
2023-08-07T01:21:27.383Z,95843.59
2023-08-07T01:24:32.553Z,95842.59
2023-08-07T01:28:02.756Z,95848.94
2023-08-07T01:31:14.901Z,95848.94
2023-08-07T01:34:29.169Z,95858.66
2023-08-07T01:37:33.961Z,95858.81
2023-08-07T01:40:51.933Z,95854.47
2023-08-07T01:44:04.712Z,95849.94
2023-08-07T01:47:10.917Z,95863.16
2023-08-07T01:50:16.193Z,95858.97
2023-08-07T01:53:21.808Z,95867.00
2023-08-07T01:56:27.618Z,95870.69
2023-08-07T01:59:33.646Z,95865.03
2023-08-07T02:02:46.821Z,95874.34
2023-08-07T02:05:51.893Z,95869.84
2023-08-07T02:09:00.117Z,95876.84
2023-08-07T02:12:05.729Z,95871.50
2023-08-07T02:15:09.963Z,95878.38
2023-08-07T02:18:15.453Z,95879.53
2023-08-07T02:21:26.520Z,95884.88
2023-08-07T02:24:32.367Z,95888.38
2023-08-07T02:27:44.160Z,95881.88
2023-08-07T02:30:58.137Z,95879.38
2023-08-07T02:34:12.864Z,95884.34
2023-08-07T02:37:15.747Z,95893.22
2023-08-07T02:40:29.422Z,95902.44
2023-08-07T02:43:35.091Z,95896.25
2023-08-07T02:46:37.307Z,95897.09
2023-08-07T02:49:48.528Z,95900.41
2023-08-07T02:52:52.090Z,95894.72
2023-08-07T02:55:56.515Z,95905.25
2023-08-07T03:02:26.030Z,95893.03
2023-08-07T03:05:33.063Z,95907.94
2023-08-07T03:08:44.330Z,95901.91
2023-08-07T03:11:50.469Z,95909.59
2023-08-07T03:14:57.236Z,95905.72
2023-08-07T03:18:02.121Z,95911.56
2023-08-07T03:24:27.254Z,95913.41
2023-08-07T03:27:33.194Z,95906.69
2023-08-07T03:30:38.452Z,95912.25
2023-08-07T03:33:55.753Z,95917.59
2023-08-07T03:37:08.271Z,95920.28
2023-08-07T03:40:12.617Z,95918.06
2023-08-07T03:43:18.370Z,95919.91
2023-08-07T03:46:31.448Z,95919.75
2023-08-07T03:49:45.734Z,95927.59
2023-08-07T03:52:52.406Z,95924.09
2023-08-07T03:55:57.319Z,95940.16
2023-08-07T03:59:03.416Z,95951.00
2023-08-07T04:02:18.423Z,95943.66
2023-08-07T04:05:23.317Z,95950.00
2023-08-07T04:08:27.279Z,95959.53
2023-08-07T04:11:31.280Z,95960.34
2023-08-07T04:14:35.842Z,95955.84
2023-08-07T04:17:46.695Z,95954.34
2023-08-07T04:20:58.313Z,95960.84
2023-08-07T04:24:10.754Z,95967.88
2023-08-07T04:27:23.834Z,95967.72
2023-08-07T04:30:30.793Z,95952.00
2023-08-07T04:33:35.936Z,95958.84
2023-08-07T04:36:39.710Z,95972.03
2023-08-07T04:39:44.922Z,95970.19
2023-08-07T04:43:02.500Z,95974.06
2023-08-07T04:46:07.968Z,95981.41
2023-08-07T04:49:24.148Z,95969.88
2023-08-07T04:52:28.256Z,95978.06
2023-08-07T04:55:35.511Z,95985.94
2023-08-07T04:58:42.467Z,95980.41
2023-08-07T05:01:44.544Z,95982.41
2023-08-07T05:04:52.710Z,95983.28
2023-08-07T05:07:58.212Z,95986.78
2023-08-07T05:11:03.341Z,95984.94
2023-08-07T05:14:05.606Z,95983.25
2023-08-07T05:17:09.484Z,95990.28
2023-08-07T05:20:13.279Z,96001.16
2023-08-07T05:23:17.422Z,95993.63
2023-08-07T05:26:19.930Z,96000.81
2023-08-07T05:29:23.433Z,96012.34
2023-08-07T05:32:25.421Z,96010.31
2023-08-07T05:35:29.385Z,96003.13
2023-08-07T05:38:33.731Z,96008.69
2023-08-07T05:41:43.130Z,96010.69
2023-08-07T05:44:46.061Z,96014.19
2023-08-07T05:47:50.181Z,96015.03
2023-08-07T05:50:54.385Z,96014.03
2023-08-07T05:53:58.407Z,96017.88
2023-08-07T05:57:03.176Z,96021.38
2023-08-07T06:00:08.992Z,96026.75
2023-08-07T06:06:45.176Z,96028.72
2023-08-07T06:09:52.445Z,96026.53
2023-08-07T06:12:56.847Z,96039.56
2023-08-07T06:16:08.563Z,96038.03
2023-08-07T06:22:29.576Z,96047.88
2023-08-07T06:25:43.613Z,96047.19
2023-08-07T06:28:48.276Z,96049.03
2023-08-07T06:31:54.012Z,96050.00
2023-08-07T06:34:58.416Z,96045.31
2023-08-07T06:38:00.425Z,96043.13
2023-08-07T06:41:04.121Z,96056.31
2023-08-07T06:44:06.204Z,96055.44
2023-08-07T06:47:11.018Z,96057.59
2023-08-07T06:50:14.742Z,96050.06
2023-08-07T06:53:20.743Z,96062.56
2023-08-07T06:56:26.675Z,96059.19
2023-08-07T06:59:31.108Z,96065.69
2023-08-07T07:02:34.152Z,96058.31
2023-08-07T07:05:39.135Z,96079.88
2023-08-07T07:08:42.784Z,96075.50
2023-08-07T07:11:48.279Z,96077.16
2023-08-07T07:14:54.415Z,96082.69
2023-08-07T07:17:59.823Z,96071.97
2023-08-07T07:21:27.586Z,96075.78
2023-08-07T07:24:32.578Z,96071.59
2023-08-07T07:27:38.359Z,96071.88
2023-08-07T07:30:43.655Z,96067.63
2023-08-07T07:33:53.597Z,96075.81
2023-08-07T07:36:58.494Z,96087.84
2023-08-07T07:40:04.450Z,96094.91
2023-08-07T07:43:06.535Z,96089.81
2023-08-07T07:46:09.690Z,96090.94
2023-08-07T07:49:14.200Z,96126.94
2023-08-07T07:52:16.663Z,96099.94
2023-08-07T07:55:21.879Z,96093.41
2023-08-07T07:58:33.912Z,96110.81
2023-08-07T08:01:40.059Z,96108.59
2023-08-07T08:04:44.706Z,96109.91
2023-08-07T08:07:47.051Z,96135.72
2023-08-07T08:11:03.517Z,96134.72
2023-08-07T08:14:07.558Z,96128.50
2023-08-07T08:17:13.019Z,96135.03
2023-08-07T08:20:19.309Z,96148.09
2023-08-07T08:23:25.331Z,96132.84
2023-08-07T08:26:27.529Z,96141.63
2023-08-07T08:29:32.798Z,96152.88
2023-08-07T08:32:37.021Z,96147.31
2023-08-07T08:35:46.509Z,96147.00
2023-08-07T08:38:53.006Z,96154.53
2023-08-07T08:41:56.633Z,96142.25
2023-08-07T08:45:02.749Z,96155.59
2023-08-07T08:48:28.392Z,96144.69
2023-08-07T08:51:41.154Z,96145.56
2023-08-07T08:54:46.585Z,96138.88
2023-08-07T08:57:52.435Z,96147.59
2023-08-07T09:00:55.223Z,96157.50
2023-08-07T09:03:59.803Z,96155.84
2023-08-07T09:07:08.714Z,96170.56
2023-08-07T09:10:28.050Z,96163.66
2023-08-07T09:13:40.623Z,96156.97
2023-08-07T09:16:48.013Z,96164.84
2023-08-07T09:19:53.653Z,96173.63
2023-08-07T09:22:57.507Z,96156.84
2023-08-07T09:29:31.749Z,96167.91
2023-08-07T09:32:37.121Z,96167.81
2023-08-07T09:35:41.052Z,96174.78
2023-08-07T09:38:47.151Z,96166.72
2023-08-07T09:41:59.848Z,96162.44
2023-08-07T09:45:11.365Z,96168.22
2023-08-07T09:48:17.396Z,96167.47
2023-08-07T09:51:21.687Z,96171.44
2023-08-07T09:54:26.846Z,96164.16
2023-08-07T09:57:41.087Z,96162.56
2023-08-07T10:00:52.817Z,96143.69
2023-08-07T10:03:58.728Z,96163.88
2023-08-07T10:07:25.849Z,96156.78
2023-08-07T10:10:37.322Z,96144.47
2023-08-07T10:13:42.696Z,96153.56
2023-08-07T10:16:47.567Z,96150.75
2023-08-07T10:19:52.829Z,96141.41
2023-08-07T10:23:03.313Z,96153.91
2023-08-07T10:26:08.905Z,96162.63
2023-08-07T10:29:16.162Z,96157.16
2023-08-07T10:32:31.309Z,96150.63
2023-08-07T10:35:34.907Z,96166.34
2023-08-07T10:38:37.546Z,96167.09
2023-08-07T10:41:50.880Z,96169.72
2023-08-07T10:44:54.413Z,96179.00
2023-08-07T10:51:36.931Z,96172.41
2023-08-07T10:54:59.586Z,96163.31
2023-08-07T10:58:02.158Z,96160.03
2023-08-07T11:01:41.341Z,96157.22
2023-08-07T11:04:44.227Z,96170.56
2023-08-07T11:07:47.185Z,96161.28
2023-08-07T11:10:49.266Z,96168.41
2023-08-07T11:13:52.121Z,96164.09
2023-08-07T11:16:56.538Z,96162.72
2023-08-07T11:20:00.946Z,96155.66
2023-08-07T11:23:07.171Z,96155.53
2023-08-07T11:26:13.274Z,96144.22
2023-08-07T11:29:23.765Z,96143.59
2023-08-07T11:32:28.113Z,96146.16
2023-08-07T11:35:42.038Z,96146.91
2023-08-07T11:38:45.873Z,96143.25
2023-08-07T11:41:55.490Z,96152.84
2023-08-07T11:44:59.832Z,96151.81
2023-08-07T11:48:06.201Z,96148.06
2023-08-07T11:51:11.583Z,96153.66
2023-08-07T11:54:17.935Z,96149.56
2023-08-07T11:57:22.573Z,96146.91
2023-08-07T12:00:31.286Z,96150.72
2023-08-07T12:03:43.906Z,96154.13
2023-08-07T12:06:58.595Z,96161.63
2023-08-07T12:10:08.007Z,96148.97
2023-08-07T12:13:14.043Z,96172.69
2023-08-07T12:16:18.573Z,96151.34
2023-08-07T12:19:23.870Z,96164.88
2023-08-07T12:22:29.663Z,96167.59
2023-08-07T12:25:42.083Z,96158.69
2023-08-07T12:28:47.954Z,96165.97
2023-08-07T12:31:52.214Z,96169.09
2023-08-07T12:38:06.137Z,96183.19
2023-08-07T12:41:44.757Z,96186.06
2023-08-07T12:44:32.581Z,96175.03
2023-08-07T12:47:34.685Z,96194.59
2023-08-07T12:50:38.968Z,96188.56
2023-08-07T12:53:51.254Z,96198.72
2023-08-07T12:56:57.044Z,96198.31
2023-08-07T12:59:59.028Z,96204.94
2023-08-07T13:03:01.145Z,96202.66
2023-08-07T13:09:22.828Z,96207.28
2023-08-07T13:12:25.883Z,96194.84
2023-08-07T13:15:31.034Z,96212.09
2023-08-07T13:18:36.393Z,96226.25
2023-08-07T13:21:41.398Z,96221.50
2023-08-07T13:24:52.289Z,96224.25
2023-08-07T13:27:59.549Z,96228.03
2023-08-07T13:31:05.617Z,96241.69
2023-08-07T13:34:11.661Z,96249.97
2023-08-07T13:37:16.856Z,96244.31
2023-08-07T13:40:22.122Z,96262.31
2023-08-07T13:43:23.741Z,96249.56
2023-08-07T13:46:28.280Z,96261.94
2023-08-07T13:49:31.515Z,96265.84
2023-08-07T13:52:37.977Z,96259.38
2023-08-07T13:55:41.909Z,96273.06
2023-08-07T13:58:46.030Z,96272.78
2023-08-07T14:01:54.760Z,96274.69
2023-08-07T14:04:58.514Z,96276.53
2023-08-07T14:08:03.544Z,96288.09
2023-08-07T14:11:09.181Z,96289.06
2023-08-07T14:14:14.703Z,96295.31
2023-08-07T14:20:41.487Z,96288.69
2023-08-07T14:23:53.635Z,96313.47
2023-08-07T14:26:55.956Z,96311.41
2023-08-07T14:30:01.521Z,96307.88
2023-08-07T14:33:04.642Z,96314.94
2023-08-07T14:36:10.057Z,96319.72
2023-08-07T14:42:31.577Z,96335.59
2023-08-07T14:45:44.284Z,96332.00
2023-08-07T14:48:47.988Z,96354.38
2023-08-07T14:51:53.443Z,96342.03
2023-08-07T14:54:58.932Z,96342.16
2023-08-07T14:58:04.715Z,96352.91
2023-08-07T15:01:10.814Z,96354.13
2023-08-07T15:04:15.178Z,96341.16
2023-08-07T15:07:18.259Z,96350.84
2023-08-07T15:10:24.917Z,96351.78
2023-08-07T15:13:31.244Z,96356.94
2023-08-07T15:16:42.137Z,96362.63
2023-08-07T15:19:46.901Z,96366.91
2023-08-07T15:22:52.834Z,96369.41
2023-08-07T15:25:54.894Z,96366.25
2023-08-07T15:28:57.006Z,96371.19
2023-08-07T15:31:59.765Z,96379.19
2023-08-07T15:35:01.808Z,96371.84
2023-08-07T15:38:04.464Z,96380.31
2023-08-07T15:41:08.833Z,96375.75
2023-08-07T15:47:27.913Z,96374.75
2023-08-07T15:50:32.489Z,96372.50
2023-08-07T15:53:35.042Z,96372.75
2023-08-07T15:56:38.545Z,96374.44
2023-08-07T15:59:44.165Z,96366.28
2023-08-07T16:02:50.837Z,96357.94
2023-08-07T16:05:56.931Z,96371.47
2023-08-07T16:08:59.038Z,96364.41
2023-08-07T16:12:05.100Z,96368.34
2023-08-07T16:15:12.060Z,96362.94
2023-08-07T16:18:16.671Z,96365.72
2023-08-07T16:21:21.068Z,96365.72
2023-08-07T16:24:25.725Z,96366.56
2023-08-07T16:27:36.897Z,96365.06
2023-08-07T16:30:41.462Z,96366.94
2023-08-07T16:33:47.522Z,96355.31
2023-08-07T16:36:52.889Z,96356.34
2023-08-07T16:39:58.151Z,96363.41
2023-08-07T16:43:09.434Z,96357.66
2023-08-07T16:46:13.069Z,96368.44
2023-08-07T16:49:19.902Z,96368.44
2023-08-07T16:52:24.491Z,96363.88
2023-08-07T16:55:29.895Z,96361.63
2023-08-07T16:58:33.752Z,96351.50
2023-08-07T17:01:35.966Z,96357.34
2023-08-07T17:04:39.018Z,96358.81
2023-08-07T17:07:45.087Z,96357.41
2023-08-07T17:10:50.319Z,96362.81
2023-08-07T17:13:54.915Z,96359.09
2023-08-07T17:17:06.375Z,96357.06
2023-08-07T17:20:12.735Z,96354.81
2023-08-07T17:23:18.700Z,96357.81
2023-08-07T17:26:21.144Z,96358.06
2023-08-07T17:29:24.971Z,96355.38
2023-08-07T17:32:27.106Z,96352.31
2023-08-07T17:35:41.285Z,96352.31
2023-08-07T17:38:46.522Z,96358.53
2023-08-07T17:41:49.274Z,96352.31
2023-08-07T17:44:54.110Z,96357.88
2023-08-07T17:47:59.444Z,96354.53
2023-08-07T17:51:02.963Z,96349.53
2023-08-07T17:54:07.682Z,96352.25
2023-08-07T17:57:11.078Z,96352.59
2023-08-07T18:00:18.829Z,96363.38
2023-08-07T18:03:22.763Z,96349.84
2023-08-07T18:06:26.174Z,96361.28
2023-08-07T18:09:30.665Z,96364.16
2023-08-07T18:12:33.306Z,96365.16
2023-08-07T18:15:38.261Z,96364.88
2023-08-07T18:18:42.111Z,96366.91
2023-08-07T18:21:46.682Z,96373.50
2023-08-07T18:24:57.503Z,96368.78
2023-08-07T18:28:02.299Z,96379.38
2023-08-07T18:31:09.001Z,96381.81
2023-08-07T18:34:13.868Z,96381.16
2023-08-07T18:37:19.615Z,96374.25
2023-08-07T18:40:23.248Z,96376.13
2023-08-07T18:43:27.039Z,96375.47
2023-08-07T18:46:30.312Z,96385.78
2023-08-07T18:49:33.242Z,96385.97
2023-08-07T18:52:37.964Z,96386.38
2023-08-07T18:55:42.667Z,96387.91
2023-08-07T18:58:47.636Z,96395.38
2023-08-07T19:01:52.862Z,96397.56
2023-08-07T19:04:58.518Z,96393.78
2023-08-07T19:08:12.091Z,96409.44
2023-08-07T19:11:18.869Z,96411.84
2023-08-07T19:14:23.588Z,96415.38
2023-08-07T19:17:28.351Z,96423.63
2023-08-07T19:20:32.560Z,96420.09
2023-08-07T19:23:36.201Z,96428.56
2023-08-07T19:26:38.577Z,96427.06
2023-08-07T19:29:43.542Z,96417.69
2023-08-07T19:32:54.515Z,96417.22
2023-08-07T19:35:57.744Z,96420.06
2023-08-07T19:39:04.684Z,96428.53
2023-08-07T19:42:09.839Z,96419.13
2023-08-07T19:45:12.394Z,96423.94
2023-08-07T19:48:14.523Z,96420.44
2023-08-07T19:51:17.884Z,96421.25
2023-08-07T19:54:19.950Z,96419.94
2023-08-07T19:57:22.015Z,96424.84
2023-08-07T20:00:24.284Z,96423.34
2023-08-07T20:03:29.789Z,96426.41
2023-08-07T20:06:35.396Z,96424.59
2023-08-07T20:09:51.432Z,96427.63
2023-08-07T20:12:56.148Z,96430.03
2023-08-07T20:16:08.703Z,96439.66
2023-08-07T20:19:12.264Z,96436.00
2023-08-07T20:22:42.978Z,96445.09
2023-08-07T20:25:46.255Z,96428.84
2023-08-07T20:28:52.270Z,96425.34
2023-08-07T20:31:57.640Z,96422.00
2023-08-07T20:35:08.593Z,96426.06
2023-08-07T20:38:12.206Z,96421.03
2023-08-07T20:41:16.001Z,96428.63
2023-08-07T20:44:20.252Z,96429.97
2023-08-07T20:47:31.498Z,96429.50
2023-08-07T20:50:37.463Z,96435.22
2023-08-07T20:53:42.462Z,96431.03
2023-08-07T20:56:44.359Z,96429.72
2023-08-07T20:59:47.851Z,96431.91
2023-08-07T21:02:50.843Z,96433.28
2023-08-07T21:06:03.557Z,96424.56
2023-08-07T21:09:09.579Z,96425.25
2023-08-07T21:12:15.276Z,96416.91
2023-08-07T21:15:24.873Z,96415.41
2023-08-07T21:18:30.515Z,96423.44
2023-08-07T21:21:34.414Z,96423.63
2023-08-07T21:24:40.166Z,96418.94
2023-08-07T21:27:44.668Z,96411.44
2023-08-07T21:30:48.040Z,96421.50
2023-08-07T21:33:52.481Z,96414.31
2023-08-07T21:37:07.267Z,96400.41
2023-08-07T21:40:11.257Z,96409.47
2023-08-07T21:46:32.281Z,96408.28
2023-08-07T21:49:37.949Z,96405.78
2023-08-07T21:52:40.031Z,96397.22
2023-08-07T21:55:45.379Z,96414.16
2023-08-07T21:58:50.618Z,96401.25
2023-08-07T22:01:54.194Z,96403.44
2023-08-07T22:04:56.704Z,96401.78
2023-08-07T22:08:02.756Z,96398.44
2023-08-07T22:11:11.914Z,96397.28
2023-08-07T22:14:26.236Z,96387.03
2023-08-07T22:17:31.671Z,96388.25
2023-08-07T22:20:35.345Z,96383.53
2023-08-07T22:23:39.813Z,96382.22
2023-08-07T22:26:47.981Z,96381.72
2023-08-07T22:29:50.620Z,96390.13
2023-08-07T22:33:02.440Z,96384.25
2023-08-07T22:36:06.496Z,96384.44
2023-08-07T22:42:37.985Z,96392.97
2023-08-07T22:45:49.529Z,96391.50
2023-08-07T22:48:51.706Z,96383.78
2023-08-07T22:51:55.455Z,96386.78
2023-08-07T22:55:00.239Z,96399.53
2023-08-07T22:58:03.468Z,96397.19
2023-08-07T23:01:08.452Z,96396.69
2023-08-07T23:04:13.492Z,96397.03
2023-08-07T23:07:20.598Z,96396.03
2023-08-07T23:10:24.066Z,96387.28
2023-08-07T23:13:37.611Z,96381.25
2023-08-07T23:16:43.804Z,96369.22
2023-08-07T23:19:58.562Z,96383.78
2023-08-07T23:23:10.851Z,96374.91
2023-08-07T23:26:16.232Z,96381.25
2023-08-07T23:29:19.290Z,96385.63
2023-08-07T23:32:31.933Z,96371.56
2023-08-07T23:35:34.613Z,96377.41
2023-08-07T23:38:39.966Z,96372.91
2023-08-07T23:41:50.703Z,96371.88
2023-08-07T23:44:57.423Z,96369.06
2023-08-07T23:48:06.000Z,96363.69
2023-08-07T23:51:11.588Z,96356.66
2023-08-07T23:54:15.184Z,96363.16
